Tamanrasset, Aguenar – Hadj Bey Akhamok Airport (DAAT)

NameAguenar – Hadj Bey Akhamok Airport
CityTamanrasset
CountryAlgeria
ICAODAAT
IATATMR
Altitude420 m
CoordinatesGoogle Map
Live Air TrafficLiveATC.net
METARDAAT 251730Z 27010KT 9999 SCT046 SCT100 32/M03 Q1016
2020-04-25 17:30:00 Wind: West (270°) 5.14 m/s - Visibility: > 10000 m - Temperature: 32 °C - Dew point: -3 °C - Humidity: 10.2% - Pressure: 1016 hPa

Sorry, no flights used the airport in this database.